A- A+ FrançaisEnglishEspañol中国

Services sur Internet Soldes sur Internet Des idées de cadeaux Météo Météo aéro

La météo à : Autours de vous Tarbes-Lourdes-PyrénéesGrenoble-Le-Versoud St-Nazaire-Montoir Alencon-Valframbert

carte TEMSI

Pour illustration, la carte TEMSI n'est pas mise à jour

La météo aéronautique pour les pilotes, la préparation du vol avec les METAR (METeorological Aerodrome Report, message d'observation des conditions météorologiques pour l'aviation) et Les TAF (Terminal Aerodrome Forecast : message de prévision à court terme des conditions météorologiques pour l'aviation). Et les autres ressources comme les VAC (Visual Approch Chart) et les NOTAM (Notice To Airman) pour préprer les vols.

Aéroport Cotonou (Bénin) / OACI DBBB/ IATA COO

L'altitude de l'aéroport Cotonou est de 6 m = 20 ft. Il est situé à proximité de Cotonou (Bénin). La météo générale à 5 jours est disponible pour Abomey-Calavi situé à 10.6 km.

METAR de l'aéroport Cotonou - DBBB

DBBB 101600Z 21012KT 9999 SCT013 31/26 Q1007 NOSIG

Décodage du METAR de l'aéroport Cotonou (BJ)

METAR émis par DBBB le mardi 10 décembre 2019 à 16:00 heure TU, il y a 41 minutes.

La visibilité est de supérieure à 10 km = supérieure à 6.2 sm.

La température est de 31°C = 88 °F et le point rosée est de 26°C = 79 °F . Ce qui correspond à 75% d'humidité relative.

Le QNH est de 1007 hPa = 29.74 inHg

Vent de 12 kt = 22 km/h, orienté à 210°.

Nuages : Nuages épars à 1300 ft = 400 mètres.

Aucun changement significatif dans les deux heures à venir

TAF de l'aéroport Cotonou - DBBB

DBBB 101100Z 1012/1118 22010KT 9999 SCT013

DBBB 101100Z 1012/1118 22010KT 9999 nuages épars à 013

Aéroport à proximité de Cotonou

Météo générale à 5 jours à Abomey-Calavi (10.6 km)Aéroport Cana Bouhicon (93 km)Aéroport Lagos Murtala Muhammed (106 km)Aéroport Lome Tokoin (127 km)Aéroport Save (185 km)Aéroport Atakpame Akpaka (195 km)Aéroport Anie Kolokope (201 km)

Vue aérienne de l'aéroport Cotonou

NOTAM de l'aéroport Cotonou

Les NOTAM sont fournis sans aucune garantie de leur actualité. Le pilote est le seul responsable de la vérification de sa validité avant de l'utiliser opérationnellement pour préparer un vol ou l'utiliser lors de sa navigation.

Pas de NOTAM

Sources des données